Historyczne dane pomiarowe

Dodano dane terminowe – wersja testowa.

Dane z okresu 1951-2019

Wersja bazy: 1.34 [2019-03-16, lista zmian], aktualizacja planowana na 2019-04-15

Dane meteo z obszaru Polski uzyskane na podstawie danych udostępnionych przez Instytut Meteorologii i Gospodarki Wodnej – Państwowy Instytut Badawczy.

 

Wybierz Datę:    

       

TemperaturaWilgotnośćWiatrCiśnienieOpadyŚniegCzas trwania zjawisk
 Stacja t tx tn tng RH VA  wxwx mslp ppp RRR   cm mm wxwxwxwxwxwxwx
2015-05-15 11.5 17.9 4.9 4.3 62.8- 4.7 1.3---- 0.0------------
2015-05-16 13.8 21.3 5.2 4.4 55.3- 4.0 1.7---- 0.0------------
2015-05-17 14.1 18.6 11.6 10.6 58.5- 6.0 2.3---- 0.0------------
2015-05-18 13.5 21.0 5.1 4.4 48.0- 1.3 1.7---- 0.0------------
2015-05-19 17.2 26.9 8.5 8.0 60.0- 5.7 1.3---- 15.5------------
2015-05-20 17.9 27.0 14.0 13.9 84.3- 5.3 2.0---- 13.8------------
2015-05-21 12.0 15.3 10.6 10.6 92.8- 8.0 1.3---- 13.9------------
2015-05-22 12.6 15.3 9.9 9.9 77.8- 7.3 2.7---- 0.0------------
2015-05-23 12.3 13.9 11.3 11.2 82.3- 8.0 2.0---- 6.4------------
2015-05-24 12.1 13.6 10.7 10.7 92.3- 8.0 1.3---- 0.2------------
2015-05-25 14.0 15.8 12.1 11.9 91.0- 8.0 1.3---- 4.1------------
2015-05-26 13.9 14.9 13.1 12.9 95.0- 8.0 1.3---- 10.4------------
2015-05-27 11.4 13.6 9.7 8.7 61.0- 7.0 2.7---- 0.0------------
2015-05-28 11.8 14.9 9.3 9.1 60.3- 7.0 1.3---- 0.0------------
2015-05-29 14.2 23.0 4.3 3.9 55.0- 4.0 1.7---- 0.0------------
2015-05-30 16.4 25.3 9.8 9.1 66.8- 5.7 2.0---- 8.7------------
2015-05-31 15.8 21.3 10.7 10.3 60.5- 5.7 1.0---- 0.0------------
2015-06-01 18.8 26.9 10.4 9.9 61.5- 4.3 1.3---- 0.0------------
2015-06-02 20.8 26.9 13.6 12.9 65.8- 2.7 1.3---- 3.6------------
2015-06-03 23.2 29.9 14.9 14.0 54.3- 4.0 2.3---- 0.0------------
2015-06-04 20.5 26.6 17.7 16.8 56.0- 4.7 1.7---- 0.0------------
2015-06-05 17.5 24.3 9.7 9.1 51.3- 0.7 2.7---- 0.0------------
2015-06-06 19.8 28.8 9.7 9.5 52.8- 1.0 1.3---- 0.0------------
2015-06-07 23.4 32.1 14.9 14.0 55.5- 2.7 1.7---- 0.0------------
2015-06-08 19.4 25.8 16.0 15.6 61.5- 6.7 3.0---- 0.0------------
2015-06-09 18.8 23.3 16.1 15.1 55.0- 4.0 3.7---- 0.0------------
2015-06-10 18.3 23.7 13.7 14.1 58.8- 6.0 2.3---- 0.0------------
2015-06-11 19.3 24.9 12.5 12.0 57.3- 2.0 2.0---- 0.0------------
2015-06-12 22.3 30.2 14.0 13.6 58.0- 2.0 1.7---- 0.0------------
2015-06-13 25.4 33.7 17.1 16.1 52.3- 1.7 1.3---- 0.0------------
132.9 ms

 

Źródłem pochodzenia danych jest Instytut Meteorologii i Gospodarki Wodnej – Państwowy Instytut Badawczy. Dane Instytutu Meteorologii i Gospodarki Wodnej – Państwowego Instytutu Badawczego zostały przetworzone.

Dane źródłowe można odnaleźć na stronie https://dane.imgw.pl